sensor_id;sensor_type;location;lat;lon;timestamp;P1;durP1;ratioP1;P2;durP2;ratioP2
75890;SDS011;64571;47.512;19.054;2023-05-07T00:02:42;9.13;;;5.20;;
75890;SDS011;64571;47.512;19.054;2023-05-07T00:05:45;11.70;;;4.65;;
75890;SDS011;64571;47.512;19.054;2023-05-07T00:08:48;9.75;;;5.60;;
75890;SDS011;64571;47.512;19.054;2023-05-07T00:11:50;9.95;;;5.10;;
75890;SDS011;64571;47.512;19.054;2023-05-07T00:14:53;9.27;;;4.93;;
75890;SDS011;64571;47.512;19.054;2023-05-07T00:17:55;9.17;;;5.20;;
75890;SDS011;64571;47.512;19.054;2023-05-07T00:20:59;8.45;;;4.90;;
75890;SDS011;64571;47.512;19.054;2023-05-07T00:24:02;7.37;;;4.40;;
75890;SDS011;64571;47.512;19.054;2023-05-07T00:27:05;8.93;;;5.72;;
75890;SDS011;64571;47.512;19.054;2023-05-07T00:30:08;10.85;;;6.28;;
75890;SDS011;64571;47.512;19.054;2023-05-07T00:33:11;8.60;;;5.50;;
75890;SDS011;64571;47.512;19.054;2023-05-07T00:36:13;9.38;;;6.07;;
75890;SDS011;64571;47.512;19.054;2023-05-07T00:39:16;10.73;;;6.60;;
75890;SDS011;64571;47.512;19.054;2023-05-07T00:42:18;11.38;;;6.12;;
75890;SDS011;64571;47.512;19.054;2023-05-07T00:45:21;11.02;;;7.15;;
75890;SDS011;64571;47.512;19.054;2023-05-07T00:48:24;10.37;;;7.40;;
75890;SDS011;64571;47.512;19.054;2023-05-07T00:51:27;10.50;;;7.30;;
75890;SDS011;64571;47.512;19.054;2023-05-07T00:54:31;10.80;;;7.68;;
75890;SDS011;64571;47.512;19.054;2023-05-07T00:57:39;11.82;;;7.40;;
75890;SDS011;64571;47.512;19.054;2023-05-07T01:00:43;14.13;;;8.40;;
75890;SDS011;64571;47.512;19.054;2023-05-07T01:03:46;14.37;;;8.30;;
75890;SDS011;64571;47.512;19.054;2023-05-07T01:06:49;14.75;;;8.57;;
75890;SDS011;64571;47.512;19.054;2023-05-07T01:09:53;13.52;;;8.88;;
75890;SDS011;64571;47.512;19.054;2023-05-07T01:12:57;13.62;;;7.47;;
75890;SDS011;64571;47.512;19.054;2023-05-07T01:16:01;10.90;;;6.22;;
75890;SDS011;64571;47.512;19.054;2023-05-07T01:19:04;9.87;;;6.47;;
75890;SDS011;64571;47.512;19.054;2023-05-07T01:22:08;10.70;;;6.50;;
75890;SDS011;64571;47.512;19.054;2023-05-07T01:25:15;12.43;;;6.35;;
75890;SDS011;64571;47.512;19.054;2023-05-07T01:28:19;10.25;;;6.40;;
75890;SDS011;64571;47.512;19.054;2023-05-07T01:31:22;10.70;;;6.40;;
75890;SDS011;64571;47.512;19.054;2023-05-07T01:34:30;9.17;;;6.73;;
75890;SDS011;64571;47.512;19.054;2023-05-07T01:37:35;11.50;;;7.43;;
75890;SDS011;64571;47.512;19.054;2023-05-07T01:40:38;13.68;;;7.53;;
75890;SDS011;64571;47.512;19.054;2023-05-07T01:43:41;12.85;;;8.57;;
75890;SDS011;64571;47.512;19.054;2023-05-07T01:46:44;12.82;;;8.25;;
75890;SDS011;64571;47.512;19.054;2023-05-07T01:49:48;11.87;;;8.20;;
75890;SDS011;64571;47.512;19.054;2023-05-07T01:52:50;14.13;;;8.77;;
75890;SDS011;64571;47.512;19.054;2023-05-07T01:55:54;15.60;;;8.48;;
75890;SDS011;64571;47.512;19.054;2023-05-07T01:58:57;11.73;;;8.02;;
75890;SDS011;64571;47.512;19.054;2023-05-07T02:02:00;13.07;;;7.97;;
75890;SDS011;64571;47.512;19.054;2023-05-07T02:05:03;13.77;;;8.83;;
75890;SDS011;64571;47.512;19.054;2023-05-07T02:08:06;13.15;;;8.48;;
75890;SDS011;64571;47.512;19.054;2023-05-07T02:11:09;14.60;;;8.77;;
75890;SDS011;64571;47.512;19.054;2023-05-07T02:14:11;16.90;;;8.65;;
75890;SDS011;64571;47.512;19.054;2023-05-07T02:17:14;12.85;;;8.73;;
75890;SDS011;64571;47.512;19.054;2023-05-07T02:20:17;12.67;;;8.60;;
75890;SDS011;64571;47.512;19.054;2023-05-07T02:23:20;14.40;;;8.40;;
75890;SDS011;64571;47.512;19.054;2023-05-07T02:26:23;14.68;;;8.02;;
75890;SDS011;64571;47.512;19.054;2023-05-07T02:29:25;13.27;;;8.15;;
75890;SDS011;64571;47.512;19.054;2023-05-07T02:32:28;12.82;;;8.00;;
75890;SDS011;64571;47.512;19.054;2023-05-07T02:35:31;11.90;;;7.93;;
75890;SDS011;64571;47.512;19.054;2023-05-07T02:38:33;12.27;;;8.05;;
75890;SDS011;64571;47.512;19.054;2023-05-07T02:41:36;14.68;;;8.05;;
75890;SDS011;64571;47.512;19.054;2023-05-07T02:44:39;11.52;;;7.07;;
75890;SDS011;64571;47.512;19.054;2023-05-07T02:47:41;11.68;;;7.32;;
75890;SDS011;64571;47.512;19.054;2023-05-07T02:50:44;10.40;;;6.70;;
75890;SDS011;64571;47.512;19.054;2023-05-07T02:53:47;9.95;;;6.30;;
75890;SDS011;64571;47.512;19.054;2023-05-07T02:56:50;11.48;;;6.80;;
75890;SDS011;64571;47.512;19.054;2023-05-07T02:59:53;10.10;;;6.53;;
75890;SDS011;64571;47.512;19.054;2023-05-07T03:02:56;10.88;;;6.78;;
75890;SDS011;64571;47.512;19.054;2023-05-07T03:05:58;12.90;;;7.67;;
75890;SDS011;64571;47.512;19.054;2023-05-07T03:09:02;12.52;;;7.45;;
75890;SDS011;64571;47.512;19.054;2023-05-07T03:12:04;12.30;;;7.45;;
75890;SDS011;64571;47.512;19.054;2023-05-07T03:15:07;11.35;;;7.40;;
75890;SDS011;64571;47.512;19.054;2023-05-07T03:18:10;10.95;;;7.22;;
75890;SDS011;64571;47.512;19.054;2023-05-07T03:21:13;15.97;;;7.90;;
75890;SDS011;64571;47.512;19.054;2023-05-07T03:24:16;11.75;;;7.65;;
75890;SDS011;64571;47.512;19.054;2023-05-07T03:27:18;12.23;;;7.25;;
75890;SDS011;64571;47.512;19.054;2023-05-07T03:30:21;10.32;;;6.70;;
75890;SDS011;64571;47.512;19.054;2023-05-07T03:33:24;11.85;;;7.50;;
75890;SDS011;64571;47.512;19.054;2023-05-07T03:36:27;11.93;;;7.20;;
75890;SDS011;64571;47.512;19.054;2023-05-07T03:39:30;13.32;;;7.50;;
75890;SDS011;64571;47.512;19.054;2023-05-07T03:42:35;10.05;;;6.55;;
75890;SDS011;64571;47.512;19.054;2023-05-07T03:45:38;11.98;;;7.47;;
75890;SDS011;64571;47.512;19.054;2023-05-07T03:48:41;12.63;;;7.50;;
75890;SDS011;64571;47.512;19.054;2023-05-07T03:51:44;11.47;;;7.07;;
75890;SDS011;64571;47.512;19.054;2023-05-07T03:54:46;13.32;;;7.45;;
75890;SDS011;64571;47.512;19.054;2023-05-07T03:57:50;12.30;;;7.18;;
75890;SDS011;64571;47.512;19.054;2023-05-07T04:00:53;11.85;;;7.80;;
75890;SDS011;64571;47.512;19.054;2023-05-07T04:03:56;12.20;;;8.15;;
75890;SDS011;64571;47.512;19.054;2023-05-07T04:06:59;15.53;;;7.43;;
75890;SDS011;64571;47.512;19.054;2023-05-07T04:10:04;12.18;;;6.85;;
75890;SDS011;64571;47.512;19.054;2023-05-07T04:13:06;10.38;;;6.40;;
75890;SDS011;64571;47.512;19.054;2023-05-07T04:16:09;11.48;;;6.57;;
75890;SDS011;64571;47.512;19.054;2023-05-07T04:19:12;10.13;;;6.70;;
75890;SDS011;64571;47.512;19.054;2023-05-07T04:22:15;10.07;;;6.07;;
75890;SDS011;64571;47.512;19.054;2023-05-07T04:25:18;11.10;;;6.75;;
75890;SDS011;64571;47.512;19.054;2023-05-07T04:28:21;10.75;;;6.70;;
75890;SDS011;64571;47.512;19.054;2023-05-07T04:31:23;10.65;;;6.35;;
75890;SDS011;64571;47.512;19.054;2023-05-07T04:34:28;10.35;;;6.78;;
75890;SDS011;64571;47.512;19.054;2023-05-07T04:37:32;12.93;;;6.83;;
75890;SDS011;64571;47.512;19.054;2023-05-07T04:40:35;12.75;;;6.95;;
75890;SDS011;64571;47.512;19.054;2023-05-07T04:43:38;12.65;;;7.87;;
75890;SDS011;64571;47.512;19.054;2023-05-07T04:46:41;11.88;;;7.22;;
75890;SDS011;64571;47.512;19.054;2023-05-07T04:49:44;11.80;;;7.25;;
75890;SDS011;64571;47.512;19.054;2023-05-07T04:52:47;12.67;;;7.43;;
75890;SDS011;64571;47.512;19.054;2023-05-07T04:55:54;12.88;;;7.40;;
75890;SDS011;64571;47.512;19.054;2023-05-07T04:58:59;11.68;;;6.60;;
75890;SDS011;64571;47.512;19.054;2023-05-07T05:02:02;12.73;;;7.37;;
75890;SDS011;64571;47.512;19.054;2023-05-07T05:05:07;14.30;;;6.65;;
75890;SDS011;64571;47.512;19.054;2023-05-07T05:08:10;12.70;;;7.20;;
75890;SDS011;64571;47.512;19.054;2023-05-07T05:11:13;10.52;;;6.72;;
75890;SDS011;64571;47.512;19.054;2023-05-07T05:14:17;11.30;;;7.18;;
75890;SDS011;64571;47.512;19.054;2023-05-07T05:17:20;10.63;;;6.60;;
75890;SDS011;64571;47.512;19.054;2023-05-07T05:20:22;11.77;;;7.72;;
75890;SDS011;64571;47.512;19.054;2023-05-07T05:23:25;11.67;;;7.00;;
75890;SDS011;64571;47.512;19.054;2023-05-07T05:26:27;13.38;;;7.50;;
75890;SDS011;64571;47.512;19.054;2023-05-07T05:29:31;12.27;;;7.12;;
75890;SDS011;64571;47.512;19.054;2023-05-07T05:32:34;13.05;;;7.47;;
75890;SDS011;64571;47.512;19.054;2023-05-07T05:35:37;13.07;;;7.32;;
75890;SDS011;64571;47.512;19.054;2023-05-07T05:38:40;11.80;;;7.80;;
75890;SDS011;64571;47.512;19.054;2023-05-07T05:41:43;12.18;;;7.40;;
75890;SDS011;64571;47.512;19.054;2023-05-07T05:44:47;11.88;;;8.10;;
75890;SDS011;64571;47.512;19.054;2023-05-07T05:47:49;11.68;;;8.00;;
75890;SDS011;64571;47.512;19.054;2023-05-07T05:50:52;13.90;;;8.40;;
75890;SDS011;64571;47.512;19.054;2023-05-07T05:53:55;14.87;;;8.23;;
75890;SDS011;64571;47.512;19.054;2023-05-07T05:56:58;13.15;;;8.43;;
75890;SDS011;64571;47.512;19.054;2023-05-07T06:00:02;12.77;;;8.38;;
75890;SDS011;64571;47.512;19.054;2023-05-07T06:03:06;13.20;;;8.65;;
75890;SDS011;64571;47.512;19.054;2023-05-07T06:06:10;12.52;;;8.93;;
75890;SDS011;64571;47.512;19.054;2023-05-07T06:09:12;12.77;;;8.03;;
75890;SDS011;64571;47.512;19.054;2023-05-07T06:12:16;13.52;;;9.02;;
75890;SDS011;64571;47.512;19.054;2023-05-07T06:15:18;13.18;;;8.48;;
75890;SDS011;64571;47.512;19.054;2023-05-07T06:18:22;10.30;;;7.50;;
75890;SDS011;64571;47.512;19.054;2023-05-07T06:21:25;13.95;;;7.82;;
75890;SDS011;64571;47.512;19.054;2023-05-07T06:24:28;12.40;;;7.70;;
75890;SDS011;64571;47.512;19.054;2023-05-07T06:27:32;12.25;;;8.43;;
75890;SDS011;64571;47.512;19.054;2023-05-07T06:30:35;12.23;;;7.78;;
75890;SDS011;64571;47.512;19.054;2023-05-07T06:33:39;10.35;;;6.72;;
75890;SDS011;64571;47.512;19.054;2023-05-07T06:36:43;12.13;;;8.07;;
75890;SDS011;64571;47.512;19.054;2023-05-07T06:39:46;11.90;;;7.90;;
75890;SDS011;64571;47.512;19.054;2023-05-07T06:42:49;10.75;;;7.22;;
75890;SDS011;64571;47.512;19.054;2023-05-07T06:45:52;11.63;;;7.20;;
75890;SDS011;64571;47.512;19.054;2023-05-07T06:48:55;9.88;;;6.40;;
75890;SDS011;64571;47.512;19.054;2023-05-07T06:52:00;8.48;;;6.10;;
75890;SDS011;64571;47.512;19.054;2023-05-07T06:55:03;7.00;;;5.03;;
75890;SDS011;64571;47.512;19.054;2023-05-07T06:58:07;9.30;;;5.80;;
75890;SDS011;64571;47.512;19.054;2023-05-07T07:01:10;8.88;;;5.47;;
75890;SDS011;64571;47.512;19.054;2023-05-07T07:04:12;10.25;;;5.70;;
75890;SDS011;64571;47.512;19.054;2023-05-07T07:07:16;7.43;;;4.60;;
75890;SDS011;64571;47.512;19.054;2023-05-07T07:10:19;7.03;;;4.80;;
75890;SDS011;64571;47.512;19.054;2023-05-07T07:13:22;7.65;;;4.57;;
75890;SDS011;64571;47.512;19.054;2023-05-07T07:16:25;7.00;;;4.32;;
75890;SDS011;64571;47.512;19.054;2023-05-07T07:19:28;6.80;;;3.78;;
75890;SDS011;64571;47.512;19.054;2023-05-07T07:22:31;7.32;;;5.12;;
75890;SDS011;64571;47.512;19.054;2023-05-07T07:25:35;7.77;;;4.93;;
75890;SDS011;64571;47.512;19.054;2023-05-07T07:28:47;8.32;;;4.82;;
75890;SDS011;64571;47.512;19.054;2023-05-07T07:31:50;7.55;;;5.05;;
75890;SDS011;64571;47.512;19.054;2023-05-07T07:34:53;7.40;;;5.05;;
75890;SDS011;64571;47.512;19.054;2023-05-07T07:37:56;10.10;;;5.25;;
75890;SDS011;64571;47.512;19.054;2023-05-07T07:40:59;8.30;;;5.37;;
75890;SDS011;64571;47.512;19.054;2023-05-07T07:44:03;9.63;;;6.47;;
75890;SDS011;64571;47.512;19.054;2023-05-07T07:47:09;9.93;;;6.43;;
75890;SDS011;64571;47.512;19.054;2023-05-07T07:50:13;9.80;;;6.75;;
75890;SDS011;64571;47.512;19.054;2023-05-07T07:53:36;10.65;;;6.20;;
75890;SDS011;64571;47.512;19.054;2023-05-07T07:56:39;8.30;;;5.67;;
75890;SDS011;64571;47.512;19.054;2023-05-07T07:59:42;8.35;;;4.80;;
75890;SDS011;64571;47.512;19.054;2023-05-07T08:02:46;7.62;;;4.78;;
75890;SDS011;64571;47.512;19.054;2023-05-07T08:05:51;7.60;;;4.55;;
75890;SDS011;64571;47.512;19.054;2023-05-07T08:08:53;8.63;;;4.22;;
75890;SDS011;64571;47.512;19.054;2023-05-07T08:11:57;8.00;;;4.67;;
75890;SDS011;64571;47.512;19.054;2023-05-07T08:15:00;7.55;;;3.72;;
75890;SDS011;64571;47.512;19.054;2023-05-07T08:18:02;5.93;;;3.50;;
75890;SDS011;64571;47.512;19.054;2023-05-07T08:21:05;5.47;;;2.83;;
75890;SDS011;64571;47.512;19.054;2023-05-07T08:24:08;6.70;;;3.22;;
75890;SDS011;64571;47.512;19.054;2023-05-07T08:27:10;6.70;;;2.97;;
75890;SDS011;64571;47.512;19.054;2023-05-07T08:30:14;7.43;;;3.08;;
75890;SDS011;64571;47.512;19.054;2023-05-07T08:33:17;5.28;;;2.92;;
75890;SDS011;64571;47.512;19.054;2023-05-07T08:36:20;5.65;;;2.45;;
75890;SDS011;64571;47.512;19.054;2023-05-07T08:39:23;4.72;;;2.70;;
75890;SDS011;64571;47.512;19.054;2023-05-07T08:42:26;6.37;;;2.97;;
75890;SDS011;64571;47.512;19.054;2023-05-07T08:45:31;5.53;;;2.72;;
75890;SDS011;64571;47.512;19.054;2023-05-07T08:48:36;5.10;;;2.47;;
75890;SDS011;64571;47.512;19.054;2023-05-07T08:51:39;5.55;;;2.92;;
75890;SDS011;64571;47.512;19.054;2023-05-07T08:54:44;6.22;;;3.37;;
75890;SDS011;64571;47.512;19.054;2023-05-07T08:57:46;6.30;;;2.70;;
75890;SDS011;64571;47.512;19.054;2023-05-07T09:00:51;5.78;;;3.45;;
75890;SDS011;64571;47.512;19.054;2023-05-07T09:03:57;5.47;;;2.70;;
75890;SDS011;64571;47.512;19.054;2023-05-07T09:07:01;5.55;;;2.67;;
75890;SDS011;64571;47.512;19.054;2023-05-07T09:10:08;4.95;;;2.50;;
75890;SDS011;64571;47.512;19.054;2023-05-07T09:13:12;5.83;;;3.00;;
75890;SDS011;64571;47.512;19.054;2023-05-07T09:16:17;5.20;;;2.70;;
75890;SDS011;64571;47.512;19.054;2023-05-07T09:19:23;5.32;;;2.92;;
75890;SDS011;64571;47.512;19.054;2023-05-07T09:22:27;5.10;;;3.08;;
75890;SDS011;64571;47.512;19.054;2023-05-07T09:25:31;6.50;;;3.35;;
75890;SDS011;64571;47.512;19.054;2023-05-07T09:28:34;7.10;;;3.70;;
75890;SDS011;64571;47.512;19.054;2023-05-07T09:31:37;6.15;;;3.37;;
75890;SDS011;64571;47.512;19.054;2023-05-07T09:34:41;5.55;;;3.20;;
75890;SDS011;64571;47.512;19.054;2023-05-07T09:37:44;6.05;;;3.75;;
75890;SDS011;64571;47.512;19.054;2023-05-07T09:40:48;6.35;;;3.97;;
75890;SDS011;64571;47.512;19.054;2023-05-07T09:44:07;8.30;;;3.83;;
75890;SDS011;64571;47.512;19.054;2023-05-07T09:47:11;9.90;;;4.60;;
75890;SDS011;64571;47.512;19.054;2023-05-07T09:50:25;6.10;;;3.90;;
75890;SDS011;64571;47.512;19.054;2023-05-07T09:53:31;6.47;;;4.22;;
75890;SDS011;64571;47.512;19.054;2023-05-07T09:56:36;6.43;;;4.10;;
75890;SDS011;64571;47.512;19.054;2023-05-07T09:59:40;8.00;;;4.70;;
75890;SDS011;64571;47.512;19.054;2023-05-07T10:02:48;7.20;;;4.20;;
75890;SDS011;64571;47.512;19.054;2023-05-07T10:05:55;6.45;;;4.10;;
75890;SDS011;64571;47.512;19.054;2023-05-07T10:09:01;6.28;;;3.95;;
75890;SDS011;64571;47.512;19.054;2023-05-07T10:12:05;8.30;;;4.33;;
75890;SDS011;64571;47.512;19.054;2023-05-07T10:15:10;6.68;;;4.12;;
75890;SDS011;64571;47.512;19.054;2023-05-07T10:18:15;8.05;;;4.40;;
75890;SDS011;64571;47.512;19.054;2023-05-07T10:21:19;6.68;;;4.43;;
75890;SDS011;64571;47.512;19.054;2023-05-07T10:24:26;7.35;;;4.32;;
75890;SDS011;64571;47.512;19.054;2023-05-07T10:27:31;7.97;;;4.20;;
75890;SDS011;64571;47.512;19.054;2023-05-07T10:33:58;8.88;;;5.35;;
75890;SDS011;64571;47.512;19.054;2023-05-07T10:37:04;10.27;;;4.60;;
75890;SDS011;64571;47.512;19.054;2023-05-07T10:40:08;9.20;;;5.07;;
75890;SDS011;64571;47.512;19.054;2023-05-07T10:43:12;8.93;;;4.80;;
75890;SDS011;64571;47.512;19.054;2023-05-07T10:46:16;10.23;;;4.95;;
75890;SDS011;64571;47.512;19.054;2023-05-07T10:49:20;7.93;;;4.53;;
75890;SDS011;64571;47.512;19.054;2023-05-07T10:52:26;9.02;;;4.53;;
75890;SDS011;64571;47.512;19.054;2023-05-07T10:55:29;9.25;;;4.55;;
75890;SDS011;64571;47.512;19.054;2023-05-07T10:58:32;8.30;;;5.27;;
75890;SDS011;64571;47.512;19.054;2023-05-07T11:01:54;7.40;;;4.80;;
75890;SDS011;64571;47.512;19.054;2023-05-07T11:08:52;7.32;;;4.70;;
75890;SDS011;64571;47.512;19.054;2023-05-07T11:11:55;6.70;;;4.03;;
75890;SDS011;64571;47.512;19.054;2023-05-07T11:14:58;7.57;;;4.40;;
75890;SDS011;64571;47.512;19.054;2023-05-07T11:18:02;7.45;;;4.68;;
75890;SDS011;64571;47.512;19.054;2023-05-07T11:21:06;7.03;;;4.35;;
75890;SDS011;64571;47.512;19.054;2023-05-07T11:24:10;9.57;;;5.93;;
75890;SDS011;64571;47.512;19.054;2023-05-07T11:27:14;6.50;;;3.92;;
75890;SDS011;64571;47.512;19.054;2023-05-07T11:30:16;7.30;;;4.40;;
75890;SDS011;64571;47.512;19.054;2023-05-07T11:33:23;6.57;;;4.20;;
75890;SDS011;64571;47.512;19.054;2023-05-07T11:36:31;6.75;;;3.95;;
75890;SDS011;64571;47.512;19.054;2023-05-07T11:39:35;7.50;;;4.28;;
75890;SDS011;64571;47.512;19.054;2023-05-07T11:42:38;10.88;;;8.52;;
75890;SDS011;64571;47.512;19.054;2023-05-07T11:45:45;6.83;;;4.10;;
75890;SDS011;64571;47.512;19.054;2023-05-07T11:48:48;8.10;;;4.95;;
75890;SDS011;64571;47.512;19.054;2023-05-07T11:51:51;7.80;;;5.37;;
75890;SDS011;64571;47.512;19.054;2023-05-07T11:54:57;5.05;;;3.03;;
75890;SDS011;64571;47.512;19.054;2023-05-07T11:58:02;7.57;;;3.85;;
75890;SDS011;64571;47.512;19.054;2023-05-07T12:01:06;7.50;;;3.87;;
75890;SDS011;64571;47.512;19.054;2023-05-07T12:04:11;5.65;;;3.58;;
75890;SDS011;64571;47.512;19.054;2023-05-07T12:07:14;6.15;;;3.87;;
75890;SDS011;64571;47.512;19.054;2023-05-07T12:10:17;5.78;;;3.85;;
75890;SDS011;64571;47.512;19.054;2023-05-07T12:13:23;5.80;;;3.42;;
75890;SDS011;64571;47.512;19.054;2023-05-07T12:16:27;5.57;;;3.33;;
75890;SDS011;64571;47.512;19.054;2023-05-07T12:19:30;5.35;;;2.90;;
75890;SDS011;64571;47.512;19.054;2023-05-07T12:22:34;6.32;;;3.45;;
75890;SDS011;64571;47.512;19.054;2023-05-07T12:25:37;7.10;;;3.85;;
75890;SDS011;64571;47.512;19.054;2023-05-07T12:28:41;6.00;;;3.83;;
75890;SDS011;64571;47.512;19.054;2023-05-07T12:31:43;5.70;;;3.87;;
75890;SDS011;64571;47.512;19.054;2023-05-07T12:34:49;5.40;;;3.40;;
75890;SDS011;64571;47.512;19.054;2023-05-07T12:37:56;6.53;;;3.92;;
75890;SDS011;64571;47.512;19.054;2023-05-07T12:41:01;6.87;;;3.12;;
75890;SDS011;64571;47.512;19.054;2023-05-07T12:44:04;7.30;;;3.00;;
75890;SDS011;64571;47.512;19.054;2023-05-07T12:47:07;5.10;;;3.10;;
75890;SDS011;64571;47.512;19.054;2023-05-07T12:50:10;5.97;;;3.62;;
75890;SDS011;64571;47.512;19.054;2023-05-07T12:53:13;6.12;;;3.30;;
75890;SDS011;64571;47.512;19.054;2023-05-07T12:56:16;5.37;;;2.95;;
75890;SDS011;64571;47.512;19.054;2023-05-07T12:59:19;5.60;;;2.75;;
75890;SDS011;64571;47.512;19.054;2023-05-07T13:02:38;7.27;;;2.80;;
75890;SDS011;64571;47.512;19.054;2023-05-07T13:05:42;8.63;;;3.50;;
75890;SDS011;64571;47.512;19.054;2023-05-07T13:08:45;6.68;;;3.22;;
75890;SDS011;64571;47.512;19.054;2023-05-07T13:11:47;7.20;;;3.50;;
75890;SDS011;64571;47.512;19.054;2023-05-07T13:14:50;5.78;;;3.55;;
75890;SDS011;64571;47.512;19.054;2023-05-07T13:17:53;5.90;;;3.17;;
75890;SDS011;64571;47.512;19.054;2023-05-07T13:20:55;5.43;;;3.37;;
75890;SDS011;64571;47.512;19.054;2023-05-07T13:23:58;5.70;;;3.33;;
75890;SDS011;64571;47.512;19.054;2023-05-07T13:27:01;5.65;;;3.33;;
75890;SDS011;64571;47.512;19.054;2023-05-07T13:30:03;7.22;;;2.95;;
75890;SDS011;64571;47.512;19.054;2023-05-07T13:33:07;6.27;;;3.00;;
75890;SDS011;64571;47.512;19.054;2023-05-07T13:36:10;5.30;;;3.12;;
75890;SDS011;64571;47.512;19.054;2023-05-07T13:39:12;6.57;;;3.10;;
75890;SDS011;64571;47.512;19.054;2023-05-07T13:42:15;6.30;;;3.50;;
75890;SDS011;64571;47.512;19.054;2023-05-07T13:45:18;5.97;;;3.40;;
75890;SDS011;64571;47.512;19.054;2023-05-07T13:48:21;6.50;;;3.57;;
75890;SDS011;64571;47.512;19.054;2023-05-07T13:51:23;6.72;;;3.37;;
75890;SDS011;64571;47.512;19.054;2023-05-07T13:54:26;5.32;;;3.65;;
75890;SDS011;64571;47.512;19.054;2023-05-07T13:57:28;9.52;;;3.90;;
75890;SDS011;64571;47.512;19.054;2023-05-07T14:00:31;6.55;;;3.40;;
75890;SDS011;64571;47.512;19.054;2023-05-07T14:03:34;9.87;;;3.70;;
75890;SDS011;64571;47.512;19.054;2023-05-07T14:06:37;5.90;;;3.17;;
75890;SDS011;64571;47.512;19.054;2023-05-07T14:09:40;6.07;;;3.65;;
75890;SDS011;64571;47.512;19.054;2023-05-07T14:12:43;6.43;;;3.12;;
75890;SDS011;64571;47.512;19.054;2023-05-07T14:15:47;7.43;;;4.10;;
75890;SDS011;64571;47.512;19.054;2023-05-07T14:18:51;5.67;;;3.30;;
75890;SDS011;64571;47.512;19.054;2023-05-07T14:21:53;5.75;;;3.30;;
75890;SDS011;64571;47.512;19.054;2023-05-07T14:24:59;5.85;;;3.53;;
75890;SDS011;64571;47.512;19.054;2023-05-07T14:28:08;6.75;;;3.35;;
75890;SDS011;64571;47.512;19.054;2023-05-07T14:31:11;6.70;;;3.45;;
75890;SDS011;64571;47.512;19.054;2023-05-07T14:34:14;6.47;;;3.33;;
75890;SDS011;64571;47.512;19.054;2023-05-07T14:37:17;7.00;;;3.62;;
75890;SDS011;64571;47.512;19.054;2023-05-07T14:40:22;6.65;;;3.90;;
75890;SDS011;64571;47.512;19.054;2023-05-07T14:43:24;8.27;;;3.53;;
75890;SDS011;64571;47.512;19.054;2023-05-07T14:46:27;8.77;;;3.90;;
75890;SDS011;64571;47.512;19.054;2023-05-07T14:49:29;6.80;;;4.53;;
75890;SDS011;64571;47.512;19.054;2023-05-07T14:52:32;7.10;;;3.70;;
75890;SDS011;64571;47.512;19.054;2023-05-07T14:55:34;7.10;;;3.45;;
75890;SDS011;64571;47.512;19.054;2023-05-07T14:58:37;6.70;;;4.10;;
75890;SDS011;64571;47.512;19.054;2023-05-07T15:01:40;6.93;;;4.12;;
75890;SDS011;64571;47.512;19.054;2023-05-07T15:04:47;9.13;;;3.90;;
75890;SDS011;64571;47.512;19.054;2023-05-07T15:07:50;7.47;;;4.37;;
75890;SDS011;64571;47.512;19.054;2023-05-07T15:10:53;9.07;;;4.32;;
75890;SDS011;64571;47.512;19.054;2023-05-07T15:13:57;8.38;;;4.62;;
75890;SDS011;64571;47.512;19.054;2023-05-07T15:16:59;9.30;;;5.45;;
75890;SDS011;64571;47.512;19.054;2023-05-07T15:20:02;8.77;;;5.57;;
75890;SDS011;64571;47.512;19.054;2023-05-07T15:23:07;8.02;;;4.85;;
75890;SDS011;64571;47.512;19.054;2023-05-07T15:26:17;7.53;;;4.32;;
75890;SDS011;64571;47.512;19.054;2023-05-07T15:29:21;7.18;;;4.53;;
75890;SDS011;64571;47.512;19.054;2023-05-07T15:32:23;8.77;;;4.47;;
75890;SDS011;64571;47.512;19.054;2023-05-07T15:35:26;11.90;;;4.73;;
75890;SDS011;64571;47.512;19.054;2023-05-07T15:38:29;6.80;;;4.25;;
75890;SDS011;64571;47.512;19.054;2023-05-07T15:41:32;7.53;;;3.70;;
75890;SDS011;64571;47.512;19.054;2023-05-07T15:44:35;18.02;;;5.90;;
75890;SDS011;64571;47.512;19.054;2023-05-07T15:47:37;7.12;;;3.55;;
75890;SDS011;64571;47.512;19.054;2023-05-07T15:50:41;7.67;;;3.70;;
75890;SDS011;64571;47.512;19.054;2023-05-07T15:53:44;6.32;;;3.62;;
75890;SDS011;64571;47.512;19.054;2023-05-07T15:56:46;6.93;;;4.37;;
75890;SDS011;64571;47.512;19.054;2023-05-07T15:59:49;6.93;;;3.53;;
75890;SDS011;64571;47.512;19.054;2023-05-07T16:02:52;7.22;;;3.75;;
75890;SDS011;64571;47.512;19.054;2023-05-07T16:05:55;6.60;;;3.20;;
75890;SDS011;64571;47.512;19.054;2023-05-07T16:09:03;7.65;;;4.15;;
75890;SDS011;64571;47.512;19.054;2023-05-07T16:12:07;5.93;;;3.45;;
75890;SDS011;64571;47.512;19.054;2023-05-07T16:15:12;5.75;;;2.70;;
75890;SDS011;64571;47.512;19.054;2023-05-07T16:18:16;6.07;;;2.97;;
75890;SDS011;64571;47.512;19.054;2023-05-07T16:21:18;6.03;;;2.50;;
75890;SDS011;64571;47.512;19.054;2023-05-07T16:24:21;6.82;;;2.60;;
75890;SDS011;64571;47.512;19.054;2023-05-07T16:27:23;6.55;;;2.85;;
75890;SDS011;64571;47.512;19.054;2023-05-07T16:30:26;6.12;;;2.72;;
75890;SDS011;64571;47.512;19.054;2023-05-07T16:33:28;5.12;;;2.65;;
75890;SDS011;64571;47.512;19.054;2023-05-07T16:36:31;5.13;;;2.47;;
75890;SDS011;64571;47.512;19.054;2023-05-07T16:39:33;6.45;;;2.55;;
75890;SDS011;64571;47.512;19.054;2023-05-07T16:42:36;6.60;;;2.25;;
75890;SDS011;64571;47.512;19.054;2023-05-07T16:45:38;5.35;;;2.55;;
75890;SDS011;64571;47.512;19.054;2023-05-07T16:48:41;6.25;;;2.60;;
75890;SDS011;64571;47.512;19.054;2023-05-07T16:51:45;4.73;;;1.87;;
75890;SDS011;64571;47.512;19.054;2023-05-07T16:54:48;4.87;;;2.37;;
75890;SDS011;64571;47.512;19.054;2023-05-07T16:57:50;5.43;;;2.35;;
75890;SDS011;64571;47.512;19.054;2023-05-07T17:00:53;4.68;;;2.10;;
75890;SDS011;64571;47.512;19.054;2023-05-07T17:03:56;5.05;;;2.47;;
75890;SDS011;64571;47.512;19.054;2023-05-07T17:06:58;6.30;;;2.17;;
75890;SDS011;64571;47.512;19.054;2023-05-07T17:10:01;9.25;;;2.55;;
75890;SDS011;64571;47.512;19.054;2023-05-07T17:13:04;5.70;;;2.33;;
75890;SDS011;64571;47.512;19.054;2023-05-07T17:16:07;6.57;;;2.83;;
75890;SDS011;64571;47.512;19.054;2023-05-07T17:19:10;5.55;;;2.55;;
75890;SDS011;64571;47.512;19.054;2023-05-07T17:22:12;5.23;;;2.43;;
75890;SDS011;64571;47.512;19.054;2023-05-07T17:25:15;5.00;;;2.25;;
75890;SDS011;64571;47.512;19.054;2023-05-07T17:28:17;4.78;;;2.42;;
75890;SDS011;64571;47.512;19.054;2023-05-07T17:31:20;6.78;;;2.60;;
75890;SDS011;64571;47.512;19.054;2023-05-07T17:34:22;6.95;;;2.75;;
75890;SDS011;64571;47.512;19.054;2023-05-07T17:37:25;4.60;;;1.90;;
75890;SDS011;64571;47.512;19.054;2023-05-07T17:40:28;6.90;;;2.60;;
75890;SDS011;64571;47.512;19.054;2023-05-07T17:43:30;7.43;;;2.47;;
75890;SDS011;64571;47.512;19.054;2023-05-07T17:46:33;5.45;;;2.50;;
75890;SDS011;64571;47.512;19.054;2023-05-07T17:49:35;6.37;;;2.65;;
75890;SDS011;64571;47.512;19.054;2023-05-07T17:52:39;8.80;;;2.53;;
75890;SDS011;64571;47.512;19.054;2023-05-07T17:55:42;5.82;;;2.92;;
75890;SDS011;64571;47.512;19.054;2023-05-07T17:58:46;5.40;;;2.75;;
75890;SDS011;64571;47.512;19.054;2023-05-07T18:02:00;6.40;;;2.20;;
75890;SDS011;64571;47.512;19.054;2023-05-07T18:05:03;6.25;;;2.15;;
75890;SDS011;64571;47.512;19.054;2023-05-07T18:08:06;5.63;;;2.50;;
75890;SDS011;64571;47.512;19.054;2023-05-07T18:11:09;6.20;;;2.83;;
75890;SDS011;64571;47.512;19.054;2023-05-07T18:14:12;6.87;;;3.10;;